sensor_id;sensor_type;location;lat;lon;timestamp;temperature;humidity
44117;DHT22;29781;49.480;8.512;2023-05-20T00:00:50;14.70;99.90
44117;DHT22;29781;49.480;8.512;2023-05-20T00:03:18;14.70;99.90
44117;DHT22;29781;49.480;8.512;2023-05-20T00:05:45;14.70;99.90
44117;DHT22;29781;49.480;8.512;2023-05-20T00:08:10;14.60;99.90
44117;DHT22;29781;49.480;8.512;2023-05-20T00:10:36;14.60;99.90
44117;DHT22;29781;49.480;8.512;2023-05-20T00:13:02;14.60;99.90
44117;DHT22;29781;49.480;8.512;2023-05-20T00:15:28;14.60;99.90
44117;DHT22;29781;49.480;8.512;2023-05-20T00:17:54;14.50;99.90
44117;DHT22;29781;49.480;8.512;2023-05-20T00:20:19;14.50;99.90
44117;DHT22;29781;49.480;8.512;2023-05-20T00:22:45;14.50;99.90
44117;DHT22;29781;49.480;8.512;2023-05-20T00:25:11;14.40;99.90
44117;DHT22;29781;49.480;8.512;2023-05-20T00:27:39;14.40;99.90
44117;DHT22;29781;49.480;8.512;2023-05-20T00:30:05;14.30;99.90
44117;DHT22;29781;49.480;8.512;2023-05-20T00:32:31;14.30;99.90
44117;DHT22;29781;49.480;8.512;2023-05-20T00:34:57;14.20;99.90
44117;DHT22;29781;49.480;8.512;2023-05-20T00:37:24;14.20;99.90
44117;DHT22;29781;49.480;8.512;2023-05-20T00:39:49;14.10;99.90
44117;DHT22;29781;49.480;8.512;2023-05-20T00:42:22;14.10;99.90
44117;DHT22;29781;49.480;8.512;2023-05-20T00:44:48;14.00;99.90
44117;DHT22;29781;49.480;8.512;2023-05-20T00:47:15;13.90;99.90
44117;DHT22;29781;49.480;8.512;2023-05-20T00:49:41;13.90;99.90
44117;DHT22;29781;49.480;8.512;2023-05-20T00:52:07;13.80;99.90
44117;DHT22;29781;49.480;8.512;2023-05-20T00:54:33;13.90;99.90
44117;DHT22;29781;49.480;8.512;2023-05-20T00:56:58;13.90;99.90
44117;DHT22;29781;49.480;8.512;2023-05-20T00:59:25;13.90;99.90
44117;DHT22;29781;49.480;8.512;2023-05-20T01:01:51;13.90;99.90
44117;DHT22;29781;49.480;8.512;2023-05-20T01:04:16;13.90;99.90
44117;DHT22;29781;49.480;8.512;2023-05-20T01:06:43;13.90;99.90
44117;DHT22;29781;49.480;8.512;2023-05-20T01:09:10;13.90;99.90
44117;DHT22;29781;49.480;8.512;2023-05-20T01:11:46;13.90;99.90
44117;DHT22;29781;49.480;8.512;2023-05-20T01:14:15;13.90;99.90
44117;DHT22;29781;49.480;8.512;2023-05-20T01:16:42;13.90;99.90
44117;DHT22;29781;49.480;8.512;2023-05-20T01:19:25;14.00;99.90
44117;DHT22;29781;49.480;8.512;2023-05-20T01:21:52;14.00;99.90
44117;DHT22;29781;49.480;8.512;2023-05-20T01:24:18;14.10;99.90
44117;DHT22;29781;49.480;8.512;2023-05-20T01:26:44;14.10;99.90
44117;DHT22;29781;49.480;8.512;2023-05-20T01:29:12;14.20;99.90
44117;DHT22;29781;49.480;8.512;2023-05-20T01:31:38;14.30;99.90
44117;DHT22;29781;49.480;8.512;2023-05-20T01:34:04;14.20;99.90
44117;DHT22;29781;49.480;8.512;2023-05-20T01:36:31;14.20;99.90
44117;DHT22;29781;49.480;8.512;2023-05-20T01:38:57;14.20;99.90
44117;DHT22;29781;49.480;8.512;2023-05-20T01:41:24;14.40;99.90
44117;DHT22;29781;49.480;8.512;2023-05-20T01:43:51;14.50;99.90
44117;DHT22;29781;49.480;8.512;2023-05-20T01:46:16;14.60;99.90
44117;DHT22;29781;49.480;8.512;2023-05-20T01:48:42;14.60;99.90
44117;DHT22;29781;49.480;8.512;2023-05-20T01:51:07;14.70;99.90
44117;DHT22;29781;49.480;8.512;2023-05-20T01:53:33;14.60;99.90
44117;DHT22;29781;49.480;8.512;2023-05-20T01:55:58;14.40;99.90
44117;DHT22;29781;49.480;8.512;2023-05-20T01:58:24;14.20;99.90
44117;DHT22;29781;49.480;8.512;2023-05-20T02:00:49;14.10;99.90
44117;DHT22;29781;49.480;8.512;2023-05-20T02:03:15;14.00;99.90
44117;DHT22;29781;49.480;8.512;2023-05-20T02:05:41;13.80;99.90
44117;DHT22;29781;49.480;8.512;2023-05-20T02:08:06;13.80;99.90
44117;DHT22;29781;49.480;8.512;2023-05-20T02:10:32;13.90;99.90
44117;DHT22;29781;49.480;8.512;2023-05-20T02:12:57;13.90;99.90
44117;DHT22;29781;49.480;8.512;2023-05-20T02:15:23;13.90;99.90
44117;DHT22;29781;49.480;8.512;2023-05-20T02:17:49;13.90;99.90
44117;DHT22;29781;49.480;8.512;2023-05-20T02:20:14;13.90;99.90
44117;DHT22;29781;49.480;8.512;2023-05-20T02:22:40;14.00;99.90
44117;DHT22;29781;49.480;8.512;2023-05-20T02:25:06;14.10;99.90
44117;DHT22;29781;49.480;8.512;2023-05-20T02:27:32;14.10;99.90
44117;DHT22;29781;49.480;8.512;2023-05-20T02:29:59;14.20;99.90
44117;DHT22;29781;49.480;8.512;2023-05-20T02:32:24;14.00;99.90
44117;DHT22;29781;49.480;8.512;2023-05-20T02:34:55;13.70;99.90
44117;DHT22;29781;49.480;8.512;2023-05-20T02:37:21;13.50;99.90
44117;DHT22;29781;49.480;8.512;2023-05-20T02:39:46;13.40;99.90
44117;DHT22;29781;49.480;8.512;2023-05-20T02:42:12;13.30;99.90
44117;DHT22;29781;49.480;8.512;2023-05-20T02:44:37;13.40;99.90
44117;DHT22;29781;49.480;8.512;2023-05-20T02:47:03;13.30;99.90
44117;DHT22;29781;49.480;8.512;2023-05-20T02:49:28;13.30;99.90
44117;DHT22;29781;49.480;8.512;2023-05-20T02:51:54;13.50;99.90
44117;DHT22;29781;49.480;8.512;2023-05-20T02:54:20;13.50;99.90
44117;DHT22;29781;49.480;8.512;2023-05-20T02:56:45;13.60;99.90
44117;DHT22;29781;49.480;8.512;2023-05-20T02:59:11;13.40;99.90
44117;DHT22;29781;49.480;8.512;2023-05-20T03:01:36;13.50;99.90
44117;DHT22;29781;49.480;8.512;2023-05-20T03:04:02;13.60;99.90
44117;DHT22;29781;49.480;8.512;2023-05-20T03:06:28;13.70;99.90
44117;DHT22;29781;49.480;8.512;2023-05-20T03:08:57;13.80;99.90
44117;DHT22;29781;49.480;8.512;2023-05-20T03:11:22;13.80;99.90
44117;DHT22;29781;49.480;8.512;2023-05-20T03:13:48;13.90;99.90
44117;DHT22;29781;49.480;8.512;2023-05-20T03:16:14;13.80;99.90
44117;DHT22;29781;49.480;8.512;2023-05-20T03:18:40;13.80;99.90
44117;DHT22;29781;49.480;8.512;2023-05-20T03:21:07;13.70;99.90
44117;DHT22;29781;49.480;8.512;2023-05-20T03:23:32;13.70;99.90
44117;DHT22;29781;49.480;8.512;2023-05-20T03:25:58;13.70;99.90
44117;DHT22;29781;49.480;8.512;2023-05-20T03:28:23;13.50;99.90
44117;DHT22;29781;49.480;8.512;2023-05-20T03:30:49;13.50;99.90
44117;DHT22;29781;49.480;8.512;2023-05-20T03:33:14;13.50;99.90
44117;DHT22;29781;49.480;8.512;2023-05-20T03:35:40;13.50;99.90
44117;DHT22;29781;49.480;8.512;2023-05-20T03:38:06;13.60;99.90
44117;DHT22;29781;49.480;8.512;2023-05-20T03:40:31;13.60;99.90
44117;DHT22;29781;49.480;8.512;2023-05-20T03:42:57;13.40;99.90
44117;DHT22;29781;49.480;8.512;2023-05-20T03:45:22;13.40;99.90
44117;DHT22;29781;49.480;8.512;2023-05-20T03:47:48;13.50;99.90
44117;DHT22;29781;49.480;8.512;2023-05-20T03:50:13;13.50;99.90
44117;DHT22;29781;49.480;8.512;2023-05-20T03:52:39;13.50;99.90
44117;DHT22;29781;49.480;8.512;2023-05-20T03:55:05;13.60;99.90
44117;DHT22;29781;49.480;8.512;2023-05-20T03:57:31;13.70;99.90
44117;DHT22;29781;49.480;8.512;2023-05-20T03:59:57;13.50;99.90
44117;DHT22;29781;49.480;8.512;2023-05-20T04:02:22;13.60;99.90
44117;DHT22;29781;49.480;8.512;2023-05-20T04:04:48;13.60;99.90
44117;DHT22;29781;49.480;8.512;2023-05-20T04:07:17;13.70;99.90
44117;DHT22;29781;49.480;8.512;2023-05-20T04:09:43;13.50;99.90
44117;DHT22;29781;49.480;8.512;2023-05-20T04:12:08;13.30;99.90
44117;DHT22;29781;49.480;8.512;2023-05-20T04:14:33;13.20;99.90
44117;DHT22;29781;49.480;8.512;2023-05-20T04:17:01;13.10;99.90
44117;DHT22;29781;49.480;8.512;2023-05-20T04:19:27;13.00;99.90
44117;DHT22;29781;49.480;8.512;2023-05-20T04:21:52;13.00;99.90
44117;DHT22;29781;49.480;8.512;2023-05-20T04:24:18;12.90;99.90
44117;DHT22;29781;49.480;8.512;2023-05-20T04:26:44;12.90;99.90
44117;DHT22;29781;49.480;8.512;2023-05-20T04:29:09;12.90;99.90
44117;DHT22;29781;49.480;8.512;2023-05-20T04:31:36;13.00;99.90
44117;DHT22;29781;49.480;8.512;2023-05-20T04:34:02;13.00;99.90
44117;DHT22;29781;49.480;8.512;2023-05-20T04:36:29;12.90;99.90
44117;DHT22;29781;49.480;8.512;2023-05-20T04:38:55;12.80;99.90
44117;DHT22;29781;49.480;8.512;2023-05-20T04:41:20;12.80;99.90
44117;DHT22;29781;49.480;8.512;2023-05-20T04:43:46;12.80;99.90
44117;DHT22;29781;49.480;8.512;2023-05-20T04:46:12;12.70;99.90
44117;DHT22;29781;49.480;8.512;2023-05-20T04:48:38;12.70;99.90
44117;DHT22;29781;49.480;8.512;2023-05-20T04:51:03;12.60;99.90
44117;DHT22;29781;49.480;8.512;2023-05-20T04:53:29;12.70;99.90
44117;DHT22;29781;49.480;8.512;2023-05-20T04:55:55;12.70;99.90
44117;DHT22;29781;49.480;8.512;2023-05-20T04:58:21;12.80;99.90
44117;DHT22;29781;49.480;8.512;2023-05-20T05:00:49;12.80;99.90
44117;DHT22;29781;49.480;8.512;2023-05-20T05:03:15;12.90;99.90
44117;DHT22;29781;49.480;8.512;2023-05-20T05:05:41;13.00;99.90
44117;DHT22;29781;49.480;8.512;2023-05-20T05:08:08;13.10;99.90
44117;DHT22;29781;49.480;8.512;2023-05-20T05:10:34;13.20;99.90
44117;DHT22;29781;49.480;8.512;2023-05-20T05:13:00;13.20;99.90
44117;DHT22;29781;49.480;8.512;2023-05-20T05:15:26;13.30;99.90
44117;DHT22;29781;49.480;8.512;2023-05-20T05:17:52;13.30;99.90
44117;DHT22;29781;49.480;8.512;2023-05-20T05:20:18;13.30;99.90
44117;DHT22;29781;49.480;8.512;2023-05-20T05:22:44;13.30;99.90
44117;DHT22;29781;49.480;8.512;2023-05-20T05:25:10;13.30;99.90
44117;DHT22;29781;49.480;8.512;2023-05-20T05:27:36;13.30;99.90
44117;DHT22;29781;49.480;8.512;2023-05-20T05:30:03;13.30;99.90
44117;DHT22;29781;49.480;8.512;2023-05-20T05:32:29;13.30;99.90
44117;DHT22;29781;49.480;8.512;2023-05-20T05:34:54;13.20;99.90
44117;DHT22;29781;49.480;8.512;2023-05-20T05:37:20;13.20;99.90
44117;DHT22;29781;49.480;8.512;2023-05-20T05:39:46;13.20;99.90
44117;DHT22;29781;49.480;8.512;2023-05-20T05:42:12;13.30;99.90
44117;DHT22;29781;49.480;8.512;2023-05-20T05:44:37;13.40;99.90
44117;DHT22;29781;49.480;8.512;2023-05-20T05:47:03;13.40;99.90
44117;DHT22;29781;49.480;8.512;2023-05-20T05:49:30;13.40;99.90
44117;DHT22;29781;49.480;8.512;2023-05-20T05:51:55;13.40;99.90
44117;DHT22;29781;49.480;8.512;2023-05-20T05:54:21;13.50;99.90
44117;DHT22;29781;49.480;8.512;2023-05-20T05:56:46;13.60;99.90
44117;DHT22;29781;49.480;8.512;2023-05-20T05:59:11;13.70;99.90
44117;DHT22;29781;49.480;8.512;2023-05-20T06:01:37;13.80;99.90
44117;DHT22;29781;49.480;8.512;2023-05-20T06:04:03;13.80;99.90
44117;DHT22;29781;49.480;8.512;2023-05-20T06:06:29;14.00;99.90
44117;DHT22;29781;49.480;8.512;2023-05-20T06:08:55;14.10;99.90
44117;DHT22;29781;49.480;8.512;2023-05-20T06:11:22;14.30;99.90
44117;DHT22;29781;49.480;8.512;2023-05-20T06:13:48;14.40;99.90
44117;DHT22;29781;49.480;8.512;2023-05-20T06:16:14;14.30;99.90
44117;DHT22;29781;49.480;8.512;2023-05-20T06:18:39;14.30;99.90
44117;DHT22;29781;49.480;8.512;2023-05-20T06:21:05;14.40;99.90
44117;DHT22;29781;49.480;8.512;2023-05-20T06:23:30;14.70;99.90
44117;DHT22;29781;49.480;8.512;2023-05-20T06:25:59;14.90;99.90
44117;DHT22;29781;49.480;8.512;2023-05-20T06:28:26;14.90;99.90
44117;DHT22;29781;49.480;8.512;2023-05-20T06:30:53;14.90;99.90
44117;DHT22;29781;49.480;8.512;2023-05-20T06:33:19;14.90;99.90
44117;DHT22;29781;49.480;8.512;2023-05-20T06:35:45;15.00;99.90
44117;DHT22;29781;49.480;8.512;2023-05-20T06:38:10;15.10;99.90
44117;DHT22;29781;49.480;8.512;2023-05-20T06:40:36;15.10;99.90
44117;DHT22;29781;49.480;8.512;2023-05-20T06:43:01;15.30;99.90
44117;DHT22;29781;49.480;8.512;2023-05-20T06:45:27;15.50;99.90
44117;DHT22;29781;49.480;8.512;2023-05-20T06:47:53;15.60;99.90
44117;DHT22;29781;49.480;8.512;2023-05-20T06:50:19;15.80;99.90
44117;DHT22;29781;49.480;8.512;2023-05-20T06:52:44;15.90;99.90
44117;DHT22;29781;49.480;8.512;2023-05-20T06:55:10;15.80;99.90
44117;DHT22;29781;49.480;8.512;2023-05-20T06:57:36;15.80;99.90
44117;DHT22;29781;49.480;8.512;2023-05-20T07:00:03;15.80;99.90
44117;DHT22;29781;49.480;8.512;2023-05-20T07:02:31;15.70;99.90
44117;DHT22;29781;49.480;8.512;2023-05-20T07:04:57;15.70;99.90
44117;DHT22;29781;49.480;8.512;2023-05-20T07:07:23;15.60;99.90
44117;DHT22;29781;49.480;8.512;2023-05-20T07:09:48;15.80;99.90
44117;DHT22;29781;49.480;8.512;2023-05-20T07:12:14;15.80;99.90
44117;DHT22;29781;49.480;8.512;2023-05-20T07:14:39;15.80;99.90
44117;DHT22;29781;49.480;8.512;2023-05-20T07:17:05;15.90;99.90
44117;DHT22;29781;49.480;8.512;2023-05-20T07:19:30;16.00;99.90
44117;DHT22;29781;49.480;8.512;2023-05-20T07:21:56;16.20;99.90
44117;DHT22;29781;49.480;8.512;2023-05-20T07:24:21;16.30;99.90
44117;DHT22;29781;49.480;8.512;2023-05-20T07:26:47;16.40;99.90
44117;DHT22;29781;49.480;8.512;2023-05-20T07:29:12;16.50;99.90
44117;DHT22;29781;49.480;8.512;2023-05-20T07:31:38;16.60;99.90
44117;DHT22;29781;49.480;8.512;2023-05-20T07:34:03;16.60;99.90
44117;DHT22;29781;49.480;8.512;2023-05-20T07:36:29;16.70;99.90
44117;DHT22;29781;49.480;8.512;2023-05-20T07:38:55;16.70;99.90
44117;DHT22;29781;49.480;8.512;2023-05-20T07:41:20;16.70;99.90
44117;DHT22;29781;49.480;8.512;2023-05-20T07:43:46;17.00;99.90
44117;DHT22;29781;49.480;8.512;2023-05-20T07:46:12;17.20;99.90
44117;DHT22;29781;49.480;8.512;2023-05-20T07:48:37;17.30;99.90
44117;DHT22;29781;49.480;8.512;2023-05-20T07:51:03;17.20;99.90
44117;DHT22;29781;49.480;8.512;2023-05-20T07:53:28;17.10;99.90
44117;DHT22;29781;49.480;8.512;2023-05-20T07:55:54;17.30;99.90
44117;DHT22;29781;49.480;8.512;2023-05-20T07:58:20;17.40;99.90
44117;DHT22;29781;49.480;8.512;2023-05-20T08:00:46;17.40;99.90
44117;DHT22;29781;49.480;8.512;2023-05-20T08:03:12;17.50;99.90
44117;DHT22;29781;49.480;8.512;2023-05-20T08:05:39;17.60;99.90
44117;DHT22;29781;49.480;8.512;2023-05-20T08:08:05;17.50;99.90
44117;DHT22;29781;49.480;8.512;2023-05-20T08:10:30;17.50;99.90
44117;DHT22;29781;49.480;8.512;2023-05-20T08:12:56;17.60;99.90
44117;DHT22;29781;49.480;8.512;2023-05-20T08:15:21;17.70;99.90
44117;DHT22;29781;49.480;8.512;2023-05-20T08:17:47;17.60;99.90
44117;DHT22;29781;49.480;8.512;2023-05-20T08:20:12;17.60;99.90
44117;DHT22;29781;49.480;8.512;2023-05-20T08:22:38;17.70;99.90
44117;DHT22;29781;49.480;8.512;2023-05-20T08:25:07;17.70;99.90
44117;DHT22;29781;49.480;8.512;2023-05-20T08:27:33;17.90;99.90
44117;DHT22;29781;49.480;8.512;2023-05-20T08:29:58;18.20;99.90
44117;DHT22;29781;49.480;8.512;2023-05-20T08:32:24;18.20;99.90
44117;DHT22;29781;49.480;8.512;2023-05-20T08:34:50;18.30;99.90
44117;DHT22;29781;49.480;8.512;2023-05-20T08:37:16;18.30;99.90
44117;DHT22;29781;49.480;8.512;2023-05-20T08:39:41;18.30;99.90
44117;DHT22;29781;49.480;8.512;2023-05-20T08:42:08;18.40;99.90
44117;DHT22;29781;49.480;8.512;2023-05-20T08:44:35;18.60;99.90
44117;DHT22;29781;49.480;8.512;2023-05-20T08:47:02;18.60;99.90
44117;DHT22;29781;49.480;8.512;2023-05-20T08:49:30;18.70;99.90
44117;DHT22;29781;49.480;8.512;2023-05-20T08:51:56;18.70;99.90
44117;DHT22;29781;49.480;8.512;2023-05-20T08:54:23;18.90;99.90
44117;DHT22;29781;49.480;8.512;2023-05-20T08:56:50;18.90;99.90
44117;DHT22;29781;49.480;8.512;2023-05-20T08:59:18;18.70;99.90
44117;DHT22;29781;49.480;8.512;2023-05-20T09:01:44;18.70;99.90
44117;DHT22;29781;49.480;8.512;2023-05-20T09:04:09;18.90;99.90
44117;DHT22;29781;49.480;8.512;2023-05-20T09:06:45;19.20;99.90
44117;DHT22;29781;49.480;8.512;2023-05-20T09:09:12;19.30;99.90
44117;DHT22;29781;49.480;8.512;2023-05-20T09:11:39;19.00;99.90
44117;DHT22;29781;49.480;8.512;2023-05-20T09:14:05;19.00;99.90
44117;DHT22;29781;49.480;8.512;2023-05-20T09:16:31;19.20;99.90
44117;DHT22;29781;49.480;8.512;2023-05-20T09:18:57;19.20;99.90
44117;DHT22;29781;49.480;8.512;2023-05-20T09:21:28;19.20;99.90
44117;DHT22;29781;49.480;8.512;2023-05-20T09:23:55;18.90;99.90
44117;DHT22;29781;49.480;8.512;2023-05-20T09:26:26;19.10;99.90
44117;DHT22;29781;49.480;8.512;2023-05-20T09:28:52;19.30;99.90
44117;DHT22;29781;49.480;8.512;2023-05-20T09:31:17;19.50;99.90
44117;DHT22;29781;49.480;8.512;2023-05-20T09:33:43;19.60;99.90
44117;DHT22;29781;49.480;8.512;2023-05-20T09:36:09;19.80;99.90
44117;DHT22;29781;49.480;8.512;2023-05-20T09:38:37;19.60;99.90
44117;DHT22;29781;49.480;8.512;2023-05-20T09:41:14;19.50;99.90
44117;DHT22;29781;49.480;8.512;2023-05-20T09:43:41;19.40;99.90
44117;DHT22;29781;49.480;8.512;2023-05-20T09:46:07;19.60;99.90
44117;DHT22;29781;49.480;8.512;2023-05-20T09:48:36;20.00;99.90
44117;DHT22;29781;49.480;8.512;2023-05-20T09:51:03;20.40;99.90
44117;DHT22;29781;49.480;8.512;2023-05-20T09:53:29;20.40;99.90
44117;DHT22;29781;49.480;8.512;2023-05-20T09:55:55;20.30;99.90
44117;DHT22;29781;49.480;8.512;2023-05-20T09:58:22;20.50;99.90
44117;DHT22;29781;49.480;8.512;2023-05-20T10:00:47;20.50;99.90
44117;DHT22;29781;49.480;8.512;2023-05-20T10:03:13;20.60;99.90
44117;DHT22;29781;49.480;8.512;2023-05-20T10:05:47;20.50;99.90
44117;DHT22;29781;49.480;8.512;2023-05-20T10:08:29;20.50;99.90
44117;DHT22;29781;49.480;8.512;2023-05-20T10:11:12;20.40;99.90
44117;DHT22;29781;49.480;8.512;2023-05-20T10:16:43;20.00;99.90
44117;DHT22;29781;49.480;8.512;2023-05-20T10:19:26;20.10;99.90
44117;DHT22;29781;49.480;8.512;2023-05-20T10:22:06;20.00;99.90
44117;DHT22;29781;49.480;8.512;2023-05-20T10:24:34;20.10;99.90
44117;DHT22;29781;49.480;8.512;2023-05-20T10:27:02;20.30;99.90
44117;DHT22;29781;49.480;8.512;2023-05-20T10:29:28;20.00;99.90
44117;DHT22;29781;49.480;8.512;2023-05-20T10:31:54;20.40;99.90
44117;DHT22;29781;49.480;8.512;2023-05-20T10:34:21;20.40;99.90
44117;DHT22;29781;49.480;8.512;2023-05-20T10:39:24;20.30;99.90
44117;DHT22;29781;49.480;8.512;2023-05-20T10:41:50;20.10;99.90
44117;DHT22;29781;49.480;8.512;2023-05-20T10:44:16;20.10;99.90
44117;DHT22;29781;49.480;8.512;2023-05-20T10:46:41;20.20;99.90
44117;DHT22;29781;49.480;8.512;2023-05-20T10:49:17;20.20;99.90
44117;DHT22;29781;49.480;8.512;2023-05-20T10:51:43;20.20;99.90
44117;DHT22;29781;49.480;8.512;2023-05-20T10:54:10;20.40;99.90
44117;DHT22;29781;49.480;8.512;2023-05-20T10:56:35;20.40;99.90
44117;DHT22;29781;49.480;8.512;2023-05-20T10:59:01;20.60;99.90
44117;DHT22;29781;49.480;8.512;2023-05-20T11:01:27;20.70;99.90
44117;DHT22;29781;49.480;8.512;2023-05-20T11:03:56;20.70;99.90
44117;DHT22;29781;49.480;8.512;2023-05-20T11:06:26;20.60;99.90
44117;DHT22;29781;49.480;8.512;2023-05-20T11:08:53;20.60;99.90
44117;DHT22;29781;49.480;8.512;2023-05-20T11:11:18;20.50;99.90
44117;DHT22;29781;49.480;8.512;2023-05-20T11:13:47;20.40;99.90
44117;DHT22;29781;49.480;8.512;2023-05-20T11:16:14;20.50;99.90
44117;DHT22;29781;49.480;8.512;2023-05-20T11:18:40;20.40;99.90
44117;DHT22;29781;49.480;8.512;2023-05-20T11:21:05;20.40;99.90
44117;DHT22;29781;49.480;8.512;2023-05-20T11:23:31;20.30;99.90
44117;DHT22;29781;49.480;8.512;2023-05-20T11:25:57;20.30;99.90
44117;DHT22;29781;49.480;8.512;2023-05-20T11:28:23;20.40;99.90
44117;DHT22;29781;49.480;8.512;2023-05-20T11:30:50;20.40;99.90
44117;DHT22;29781;49.480;8.512;2023-05-20T11:33:16;20.40;99.90
44117;DHT22;29781;49.480;8.512;2023-05-20T11:35:50;20.40;99.90
44117;DHT22;29781;49.480;8.512;2023-05-20T11:38:16;20.40;99.90
44117;DHT22;29781;49.480;8.512;2023-05-20T11:40:43;20.60;99.90
44117;DHT22;29781;49.480;8.512;2023-05-20T11:43:11;20.60;99.90
44117;DHT22;29781;49.480;8.512;2023-05-20T11:45:45;20.70;99.90
44117;DHT22;29781;49.480;8.512;2023-05-20T11:48:11;20.70;99.90
44117;DHT22;29781;49.480;8.512;2023-05-20T11:50:42;20.90;99.90
44117;DHT22;29781;49.480;8.512;2023-05-20T11:53:19;20.90;99.90
44117;DHT22;29781;49.480;8.512;2023-05-20T11:58:18;21.30;99.90
44117;DHT22;29781;49.480;8.512;2023-05-20T12:00:44;21.40;99.90
44117;DHT22;29781;49.480;8.512;2023-05-20T12:03:10;21.10;99.90
44117;DHT22;29781;49.480;8.512;2023-05-20T12:05:36;20.80;99.90
44117;DHT22;29781;49.480;8.512;2023-05-20T12:08:01;20.80;99.90
44117;DHT22;29781;49.480;8.512;2023-05-20T12:10:28;20.90;99.90
44117;DHT22;29781;49.480;8.512;2023-05-20T12:12:54;21.10;99.90
44117;DHT22;29781;49.480;8.512;2023-05-20T12:15:19;21.30;99.90
44117;DHT22;29781;49.480;8.512;2023-05-20T12:17:48;21.30;99.90
44117;DHT22;29781;49.480;8.512;2023-05-20T12:20:16;21.20;99.90
44117;DHT22;29781;49.480;8.512;2023-05-20T12:22:43;21.10;99.90
44117;DHT22;29781;49.480;8.512;2023-05-20T12:25:11;21.20;99.90
44117;DHT22;29781;49.480;8.512;2023-05-20T12:27:37;21.30;99.90
44117;DHT22;29781;49.480;8.512;2023-05-20T12:30:03;21.20;99.90
44117;DHT22;29781;49.480;8.512;2023-05-20T12:32:29;21.20;99.90
44117;DHT22;29781;49.480;8.512;2023-05-20T12:34:55;21.40;99.90
44117;DHT22;29781;49.480;8.512;2023-05-20T12:37:20;21.30;99.90
44117;DHT22;29781;49.480;8.512;2023-05-20T12:39:46;21.20;99.90
44117;DHT22;29781;49.480;8.512;2023-05-20T12:42:15;21.10;99.90
44117;DHT22;29781;49.480;8.512;2023-05-20T12:44:40;21.00;99.90
44117;DHT22;29781;49.480;8.512;2023-05-20T12:47:08;20.90;99.90
44117;DHT22;29781;49.480;8.512;2023-05-20T12:49:33;20.90;99.90
44117;DHT22;29781;49.480;8.512;2023-05-20T12:51:59;20.90;99.90
44117;DHT22;29781;49.480;8.512;2023-05-20T12:54:24;21.00;99.90
44117;DHT22;29781;49.480;8.512;2023-05-20T12:56:53;20.90;99.90
44117;DHT22;29781;49.480;8.512;2023-05-20T12:59:19;20.90;99.90
44117;DHT22;29781;49.480;8.512;2023-05-20T13:01:44;20.90;99.90
44117;DHT22;29781;49.480;8.512;2023-05-20T13:04:10;21.00;99.90
44117;DHT22;29781;49.480;8.512;2023-05-20T13:06:35;21.00;99.90
44117;DHT22;29781;49.480;8.512;2023-05-20T13:09:01;21.10;99.90
44117;DHT22;29781;49.480;8.512;2023-05-20T13:11:33;21.20;99.90
44117;DHT22;29781;49.480;8.512;2023-05-20T13:13:58;21.30;99.90
44117;DHT22;29781;49.480;8.512;2023-05-20T13:16:24;21.50;99.90
44117;DHT22;29781;49.480;8.512;2023-05-20T13:18:50;21.60;99.90
44117;DHT22;29781;49.480;8.512;2023-05-20T13:21:16;21.50;99.90
44117;DHT22;29781;49.480;8.512;2023-05-20T13:23:42;21.40;99.90
44117;DHT22;29781;49.480;8.512;2023-05-20T13:26:07;21.50;99.90
44117;DHT22;29781;49.480;8.512;2023-05-20T13:28:33;21.50;99.90
44117;DHT22;29781;49.480;8.512;2023-05-20T13:31:01;21.40;99.90
44117;DHT22;29781;49.480;8.512;2023-05-20T13:33:27;21.50;99.90
44117;DHT22;29781;49.480;8.512;2023-05-20T13:35:52;21.70;99.90
44117;DHT22;29781;49.480;8.512;2023-05-20T13:38:18;21.80;99.90
44117;DHT22;29781;49.480;8.512;2023-05-20T13:40:51;21.60;99.90
44117;DHT22;29781;49.480;8.512;2023-05-20T13:43:16;21.50;99.90
44117;DHT22;29781;49.480;8.512;2023-05-20T13:45:42;21.40;99.90
44117;DHT22;29781;49.480;8.512;2023-05-20T13:48:17;21.50;99.90
44117;DHT22;29781;49.480;8.512;2023-05-20T13:50:43;21.50;99.90
44117;DHT22;29781;49.480;8.512;2023-05-20T13:53:08;21.70;99.90
44117;DHT22;29781;49.480;8.512;2023-05-20T13:55:38;21.70;99.90
44117;DHT22;29781;49.480;8.512;2023-05-20T13:58:04;21.80;99.90
44117;DHT22;29781;49.480;8.512;2023-05-20T14:00:34;21.90;99.90
44117;DHT22;29781;49.480;8.512;2023-05-20T14:03:00;22.10;99.90
44117;DHT22;29781;49.480;8.512;2023-05-20T14:05:29;22.00;99.90
44117;DHT22;29781;49.480;8.512;2023-05-20T14:07:55;21.70;99.90
44117;DHT22;29781;49.480;8.512;2023-05-20T14:10:20;21.80;99.90
44117;DHT22;29781;49.480;8.512;2023-05-20T14:12:46;21.70;99.90
44117;DHT22;29781;49.480;8.512;2023-05-20T14:15:12;21.70;99.90
44117;DHT22;29781;49.480;8.512;2023-05-20T14:17:38;21.70;99.90
44117;DHT22;29781;49.480;8.512;2023-05-20T14:20:04;21.80;99.90
44117;DHT22;29781;49.480;8.512;2023-05-20T14:22:30;21.80;99.90
44117;DHT22;29781;49.480;8.512;2023-05-20T14:24:56;21.90;99.90
44117;DHT22;29781;49.480;8.512;2023-05-20T14:27:22;22.00;99.90
44117;DHT22;29781;49.480;8.512;2023-05-20T14:29:47;22.10;99.90
44117;DHT22;29781;49.480;8.512;2023-05-20T14:32:13;22.10;99.90
44117;DHT22;29781;49.480;8.512;2023-05-20T14:34:38;21.90;99.90
44117;DHT22;29781;49.480;8.512;2023-05-20T14:37:04;21.90;99.90
44117;DHT22;29781;49.480;8.512;2023-05-20T14:39:34;22.00;99.90
44117;DHT22;29781;49.480;8.512;2023-05-20T14:42:00;22.10;99.90
44117;DHT22;29781;49.480;8.512;2023-05-20T14:44:27;22.20;99.90
44117;DHT22;29781;49.480;8.512;2023-05-20T14:46:53;22.20;99.90
44117;DHT22;29781;49.480;8.512;2023-05-20T14:49:18;22.30;99.90
44117;DHT22;29781;49.480;8.512;2023-05-20T14:51:44;22.30;99.90
44117;DHT22;29781;49.480;8.512;2023-05-20T14:54:09;22.30;99.90
44117;DHT22;29781;49.480;8.512;2023-05-20T14:56:35;22.50;99.90
44117;DHT22;29781;49.480;8.512;2023-05-20T14:59:01;22.60;99.90
44117;DHT22;29781;49.480;8.512;2023-05-20T15:01:26;22.50;99.90
44117;DHT22;29781;49.480;8.512;2023-05-20T15:03:54;22.40;99.90
44117;DHT22;29781;49.480;8.512;2023-05-20T15:06:20;22.30;99.90
44117;DHT22;29781;49.480;8.512;2023-05-20T15:08:45;22.20;99.90
44117;DHT22;29781;49.480;8.512;2023-05-20T15:11:11;22.20;99.90
44117;DHT22;29781;49.480;8.512;2023-05-20T15:13:37;22.10;99.90
44117;DHT22;29781;49.480;8.512;2023-05-20T15:16:02;22.10;99.90
44117;DHT22;29781;49.480;8.512;2023-05-20T15:18:28;22.00;99.90
44117;DHT22;29781;49.480;8.512;2023-05-20T15:20:54;22.00;99.90
44117;DHT22;29781;49.480;8.512;2023-05-20T15:23:19;22.00;99.90
44117;DHT22;29781;49.480;8.512;2023-05-20T15:25:45;21.90;99.90
44117;DHT22;29781;49.480;8.512;2023-05-20T15:28:10;22.00;99.90
44117;DHT22;29781;49.480;8.512;2023-05-20T15:30:36;21.90;99.90
44117;DHT22;29781;49.480;8.512;2023-05-20T15:33:01;21.90;99.90